Etusivu
METAR-TAF:

METAR-TAF

Lentoasemat :

West Memphis, Arkansas, Yhdysvallat

Leveyspiiri: 35-08N, Pituuspiiri: 090-14W, korkeus merenpinnasta: 65 m

Tämänhetkinen sää

Tämä raportti tehtiin 32 minuuttia sitten, kello 13.53 UTC
tyyntä
Lämpötila 13°C
Kosteus 82%
Ilmanpaine 1011 hPa
Näkyvyys: 16.1 km
selkeää

METAR: KAWM 191353Z AUTO 00000KT 10SM CLR 13/10 A2986 RMK AO2 SLP112 T01330100

Aika: 09:25 (14:25 UTC)


TAF: puuttuu

Säähavainnot ja -ennusteet yli 4000 lentoasemalta (METAR- ja TAF-raportit).

Käytössä olevat sääasemat on merkitty karttaan keltaisilla ja punaisilla pisteillä.

Aseta hiiri pisteen päälle nähdäksesi sääaseman nimen.

Klikkaa sitten nähdäksesi säähavainnot ja -ennusteet.

Kartan vaihtaminen: klikkaa mustalla rastilla varustettuja vihreitä pisteitä, niin voit zoomata sisään; viivalla varustettua vihreää pistettä, niin voit zoomata ulos tai vihreitä nuolia, niin pääset viereisille kartoille.


METAR-TAF: